createdAt,value
2022-12-04T00:00:41.563Z,68.93
2022-12-04T00:03:15.191Z,69.10
2022-12-04T00:05:48.588Z,69.09
2022-12-04T00:08:22.066Z,69.18
2022-12-04T00:10:55.831Z,69.14
2022-12-04T00:13:29.275Z,69.19
2022-12-04T00:16:04.481Z,69.07
2022-12-04T00:18:38.677Z,69.29
2022-12-04T00:21:14.520Z,69.41
2022-12-04T00:23:48.776Z,69.27
2022-12-04T00:26:24.122Z,69.43
2022-12-04T00:28:58.173Z,69.59
2022-12-04T00:31:32.294Z,69.58
2022-12-04T00:34:08.222Z,69.41
2022-12-04T00:36:40.884Z,69.41
2022-12-04T00:39:14.158Z,69.31
2022-12-04T00:41:47.505Z,69.27
2022-12-04T00:44:20.797Z,69.36
2022-12-04T00:46:54.109Z,69.39
2022-12-04T00:49:27.383Z,69.31
2022-12-04T00:52:00.626Z,69.22
2022-12-04T00:54:35.198Z,69.19
2022-12-04T00:57:08.856Z,69.07
2022-12-04T00:59:42.633Z,69.17
2022-12-04T01:02:16.602Z,69.38
2022-12-04T01:04:50.362Z,69.32
2022-12-04T01:07:23.861Z,68.99
2022-12-04T01:09:57.648Z,69.07
2022-12-04T01:12:31.446Z,69.12
2022-12-04T01:15:05.370Z,69.15
2022-12-04T01:17:39.079Z,69.12
2022-12-04T01:20:15.028Z,69.13
2022-12-04T01:22:48.297Z,69.14
2022-12-04T01:25:21.938Z,69.24
2022-12-04T01:27:55.314Z,69.25
2022-12-04T01:30:29.138Z,69.17
2022-12-04T01:33:02.589Z,69.13
2022-12-04T01:35:36.246Z,69.10
2022-12-04T01:38:09.826Z,69.13
2022-12-04T01:40:47.193Z,69.16
2022-12-04T01:43:21.306Z,68.93
2022-12-04T01:45:56.719Z,68.87
2022-12-04T01:48:32.874Z,69.03
2022-12-04T01:51:10.185Z,69.04
2022-12-04T01:53:45.926Z,69.17
2022-12-04T01:56:24.351Z,69.37
2022-12-04T01:59:00.385Z,69.40
2022-12-04T02:01:36.808Z,69.34
2022-12-04T02:04:10.542Z,69.31
2022-12-04T02:06:44.122Z,69.38
2022-12-04T02:09:23.010Z,69.31
2022-12-04T02:11:56.569Z,69.32
2022-12-04T02:14:35.675Z,69.22
2022-12-04T02:17:13.639Z,69.28
2022-12-04T02:20:04.250Z,69.34
2022-12-04T02:22:49.420Z,69.40
2022-12-04T02:25:27.580Z,69.35
2022-12-04T02:28:09.095Z,69.38
2022-12-04T02:30:45.768Z,69.37
2022-12-04T02:33:24.110Z,69.26
2022-12-04T02:36:01.074Z,69.19
2022-12-04T02:38:37.888Z,69.37
2022-12-04T02:41:15.185Z,69.40
2022-12-04T02:43:51.530Z,69.41
2022-12-04T02:46:27.808Z,69.46
2022-12-04T02:49:03.682Z,69.52
2022-12-04T02:51:39.999Z,69.53
2022-12-04T02:54:16.214Z,69.49
2022-12-04T02:56:51.908Z,69.52
2022-12-04T02:59:28.539Z,69.59
2022-12-04T03:02:04.951Z,69.65
2022-12-04T03:04:40.465Z,69.57
2022-12-04T03:07:17.336Z,69.58
2022-12-04T03:09:56.649Z,69.73
2022-12-04T03:12:33.228Z,69.83
2022-12-04T03:15:10.597Z,69.73
2022-12-04T03:17:44.165Z,69.70
2022-12-04T03:20:20.574Z,69.71
2022-12-04T03:22:57.327Z,69.67
2022-12-04T03:25:34.070Z,69.67
2022-12-04T03:28:10.789Z,69.68
2022-12-04T03:30:47.291Z,69.73
2022-12-04T03:33:23.891Z,69.78
2022-12-04T03:36:00.182Z,69.75
2022-12-04T03:38:36.556Z,69.76
2022-12-04T03:41:12.914Z,69.70
2022-12-04T03:43:49.733Z,69.66
2022-12-04T03:46:26.765Z,69.65
2022-12-04T03:49:03.616Z,69.73
2022-12-04T03:51:39.923Z,69.77
2022-12-04T03:54:16.323Z,69.74
2022-12-04T03:56:53.570Z,69.75
2022-12-04T03:59:30.044Z,69.78
2022-12-04T04:02:06.619Z,69.86
2022-12-04T04:04:42.369Z,69.83
2022-12-04T04:07:18.562Z,69.81
2022-12-04T04:09:55.162Z,69.81
2022-12-04T04:12:31.829Z,69.75
2022-12-04T04:15:45.103Z,69.74
2022-12-04T04:21:18.983Z,69.69
2022-12-04T04:24:11.490Z,69.76
2022-12-04T04:26:48.049Z,69.77
2022-12-04T04:29:21.694Z,69.80
2022-12-04T04:31:57.911Z,69.96
2022-12-04T04:34:34.606Z,69.94
2022-12-04T04:37:10.775Z,69.90
2022-12-04T04:39:47.126Z,69.85
2022-12-04T04:42:24.421Z,69.84
2022-12-04T04:45:01.689Z,69.82
2022-12-04T04:47:35.896Z,69.87
2022-12-04T04:50:12.970Z,69.83
2022-12-04T04:52:48.908Z,69.85
2022-12-04T04:55:23.180Z,69.94
2022-12-04T04:57:57.984Z,69.85
2022-12-04T05:00:31.933Z,69.84
2022-12-04T05:03:05.753Z,69.88
2022-12-04T05:05:39.345Z,69.89
2022-12-04T05:08:12.837Z,69.89
2022-12-04T05:10:46.356Z,69.91
2022-12-04T05:13:20.695Z,69.96
2022-12-04T05:16:00.711Z,69.83
2022-12-04T05:18:35.545Z,69.85
2022-12-04T05:21:10.855Z,69.84
2022-12-04T05:23:44.525Z,69.77
2022-12-04T05:26:18.250Z,69.70
2022-12-04T05:28:51.821Z,69.77
2022-12-04T05:31:25.653Z,69.83
2022-12-04T05:33:59.174Z,69.82
2022-12-04T05:36:32.932Z,69.76
2022-12-04T05:39:06.382Z,69.72
2022-12-04T05:41:39.836Z,69.67
2022-12-04T05:44:13.600Z,69.60
2022-12-04T05:46:47.334Z,69.59
2022-12-04T05:49:20.873Z,69.53
2022-12-04T05:51:54.554Z,69.54
2022-12-04T05:54:28.156Z,69.52
2022-12-04T05:57:02.029Z,69.41
2022-12-04T05:59:35.505Z,69.42
2022-12-04T06:02:08.752Z,69.39
2022-12-04T06:04:42.556Z,69.22
2022-12-04T06:07:16.069Z,69.13
2022-12-04T06:09:49.652Z,69.12
2022-12-04T06:12:23.081Z,69.07
2022-12-04T06:14:56.923Z,68.94
2022-12-04T06:17:30.578Z,68.95
2022-12-04T06:20:09.521Z,69.22
2022-12-04T06:22:39.610Z,69.44
2022-12-04T06:25:13.597Z,68.78
2022-12-04T06:27:47.220Z,68.24
2022-12-04T06:30:20.915Z,68.35
2022-12-04T06:32:54.455Z,68.07
2022-12-04T06:35:27.528Z,67.13
2022-12-04T06:38:01.213Z,66.40
2022-12-04T06:40:34.920Z,66.33
2022-12-04T06:43:08.382Z,66.11
2022-12-04T06:45:41.776Z,65.65
2022-12-04T06:48:15.400Z,64.13
2022-12-04T06:50:49.743Z,65.14
2022-12-04T06:53:23.196Z,64.06
2022-12-04T06:55:56.719Z,64.48
2022-12-04T06:58:30.848Z,64.63
2022-12-04T07:01:08.702Z,62.79
2022-12-04T07:03:47.832Z,61.82
2022-12-04T07:06:19.231Z,61.26
2022-12-04T07:08:54.658Z,61.23
2022-12-04T07:11:28.692Z,61.01
2022-12-04T07:14:02.525Z,59.48
2022-12-04T07:16:40.769Z,59.78
2022-12-04T07:19:11.264Z,58.76
2022-12-04T07:21:44.834Z,58.73
2022-12-04T07:24:19.786Z,56.04
2022-12-04T07:26:53.444Z,57.05
2022-12-04T07:29:26.936Z,56.96
2022-12-04T07:32:00.691Z,55.66
2022-12-04T07:34:35.806Z,55.18
2022-12-04T07:37:09.157Z,54.50
2022-12-04T07:39:42.770Z,53.96
2022-12-04T07:42:19.717Z,54.04
2022-12-04T07:44:51.379Z,53.90
2022-12-04T07:47:24.875Z,52.25
2022-12-04T07:49:58.518Z,51.79
2022-12-04T07:52:32.035Z,51.20
2022-12-04T07:55:06.600Z,50.33
2022-12-04T07:57:40.205Z,48.36
2022-12-04T08:00:16.773Z,49.64
2022-12-04T08:02:50.928Z,50.45
2022-12-04T08:05:24.316Z,51.10
2022-12-04T08:07:57.693Z,50.22
2022-12-04T08:10:31.000Z,50.70
2022-12-04T08:13:04.666Z,49.80
2022-12-04T08:15:38.140Z,49.82
2022-12-04T08:18:11.858Z,51.14
2022-12-04T08:20:45.488Z,50.94
2022-12-04T08:23:19.008Z,50.27
2022-12-04T08:25:52.350Z,50.22
2022-12-04T08:28:26.014Z,50.39
2022-12-04T08:31:04.959Z,51.17
2022-12-04T08:33:38.574Z,51.13
2022-12-04T08:36:15.181Z,51.00
2022-12-04T08:38:49.711Z,51.23
2022-12-04T08:41:26.254Z,51.33
2022-12-04T08:44:01.073Z,51.57
2022-12-04T08:46:35.026Z,51.76
2022-12-04T08:49:08.478Z,52.65
2022-12-04T08:51:42.378Z,52.08
2022-12-04T08:54:16.778Z,53.16
2022-12-04T08:56:50.110Z,51.67
2022-12-04T08:59:23.405Z,51.50
2022-12-04T09:01:57.236Z,51.23
2022-12-04T09:04:30.868Z,51.50
2022-12-04T09:07:04.498Z,50.61
2022-12-04T09:09:38.011Z,48.83
2022-12-04T09:12:11.178Z,49.82
2022-12-04T09:14:44.828Z,49.30
2022-12-04T09:17:18.528Z,49.11
2022-12-04T09:19:55.500Z,48.76
2022-12-04T09:22:40.393Z,48.64
2022-12-04T09:25:02.272Z,48.17
2022-12-04T09:27:41.498Z,48.26
2022-12-04T09:30:16.215Z,48.84
2022-12-04T09:32:49.880Z,47.65
2022-12-04T09:35:23.278Z,47.86
2022-12-04T09:37:56.888Z,46.46
2022-12-04T09:40:37.631Z,46.51
2022-12-04T09:43:10.336Z,45.16
2022-12-04T09:45:46.906Z,45.99
2022-12-04T09:48:22.687Z,46.30
2022-12-04T09:50:56.658Z,46.55
2022-12-04T09:53:34.917Z,45.91
2022-12-04T09:56:12.482Z,46.50
2022-12-04T09:58:48.939Z,46.54
2022-12-04T10:01:26.152Z,46.41
2022-12-04T10:04:05.750Z,46.66
2022-12-04T10:06:37.373Z,46.29
2022-12-04T10:09:13.669Z,46.97
2022-12-04T10:11:52.420Z,46.01
2022-12-04T10:15:01.404Z,46.82
2022-12-04T10:17:56.001Z,46.35
2022-12-04T10:20:44.817Z,47.39
2022-12-04T10:23:21.746Z,47.32
2022-12-04T10:25:56.641Z,47.42
2022-12-04T10:28:33.196Z,47.07
2022-12-04T10:31:09.220Z,47.10
2022-12-04T10:33:47.503Z,47.69
2022-12-04T10:36:23.948Z,47.02
2022-12-04T10:39:01.092Z,46.46
2022-12-04T10:41:38.869Z,46.90
2022-12-04T10:44:12.186Z,46.94
2022-12-04T10:46:46.642Z,46.87
2022-12-04T10:49:22.822Z,46.11
2022-12-04T10:51:57.448Z,45.90
2022-12-04T10:54:33.805Z,46.73
2022-12-04T10:57:09.487Z,46.65
2022-12-04T10:59:51.465Z,47.05
2022-12-04T11:02:29.292Z,46.46
2022-12-04T11:05:04.436Z,46.98
2022-12-04T11:07:40.567Z,46.37
2022-12-04T11:10:24.833Z,46.22
2022-12-04T11:13:00.372Z,46.32
2022-12-04T11:15:35.279Z,47.04
2022-12-04T11:18:16.049Z,47.63
2022-12-04T11:20:56.018Z,47.27
2022-12-04T11:23:31.527Z,47.49
2022-12-04T11:26:06.364Z,47.42
2022-12-04T11:28:42.739Z,47.35
2022-12-04T11:31:21.754Z,47.21
2022-12-04T11:33:57.306Z,46.91
2022-12-04T11:36:33.591Z,47.02
2022-12-04T11:39:10.495Z,47.54
2022-12-04T11:41:44.044Z,48.05
2022-12-04T11:44:27.046Z,48.52
2022-12-04T11:47:02.851Z,48.06
2022-12-04T11:49:42.233Z,47.74
2022-12-04T11:52:19.096Z,48.49
2022-12-04T11:54:59.238Z,48.87
2022-12-04T11:57:38.159Z,49.50
2022-12-04T12:00:16.803Z,49.25
2022-12-04T12:06:12.366Z,50.28
2022-12-04T12:08:59.210Z,50.64
2022-12-04T12:11:35.993Z,50.95
2022-12-04T12:14:15.467Z,51.19
2022-12-04T12:16:56.267Z,51.49
2022-12-04T12:19:47.358Z,52.05
2022-12-04T12:22:28.192Z,52.24
2022-12-04T12:25:05.941Z,52.61
2022-12-04T12:27:48.205Z,52.84
2022-12-04T12:30:24.004Z,52.97
2022-12-04T12:33:12.248Z,53.24
2022-12-04T12:35:49.359Z,53.69
2022-12-04T12:38:25.472Z,53.90
2022-12-04T12:41:02.275Z,54.02
2022-12-04T12:43:39.375Z,54.24
2022-12-04T12:46:16.594Z,54.53
2022-12-04T12:48:58.106Z,54.81
2022-12-04T12:51:33.800Z,54.81
2022-12-04T12:54:15.796Z,54.91
2022-12-04T12:56:51.958Z,55.20
2022-12-04T12:59:28.310Z,55.26
2022-12-04T13:02:05.366Z,55.30
2022-12-04T13:04:42.286Z,55.43
2022-12-04T13:07:27.216Z,55.51
2022-12-04T13:10:04.782Z,55.59
2022-12-04T13:12:41.139Z,55.64
2022-12-04T13:15:18.751Z,55.71
2022-12-04T13:17:52.342Z,55.84
2022-12-04T13:20:28.583Z,55.86
2022-12-04T13:23:11.272Z,55.85
2022-12-04T13:25:50.756Z,55.95
2022-12-04T13:28:34.077Z,56.11
2022-12-04T13:31:13.993Z,56.24
2022-12-04T13:34:13.256Z,56.49
2022-12-04T13:37:12.967Z,56.66
2022-12-04T13:40:37.211Z,56.81
2022-12-04T13:43:22.001Z,56.87
2022-12-04T13:45:58.251Z,56.90
2022-12-04T13:48:40.612Z,56.87
2022-12-04T13:51:39.993Z,56.86
2022-12-04T13:54:27.018Z,56.80
2022-12-04T13:57:13.729Z,56.79
2022-12-04T13:59:48.943Z,56.88
2022-12-04T14:02:29.181Z,57.06
2022-12-04T14:05:05.860Z,57.14
2022-12-04T14:07:41.128Z,57.12
2022-12-04T14:10:29.779Z,57.21
2022-12-04T14:13:06.067Z,57.32
2022-12-04T14:15:41.682Z,57.29
2022-12-04T14:18:23.550Z,57.25
2022-12-04T14:21:04.344Z,57.32
2022-12-04T14:23:40.815Z,57.32
2022-12-04T14:26:48.951Z,57.38
2022-12-04T14:29:19.017Z,57.32
2022-12-04T14:31:53.602Z,57.28
2022-12-04T14:35:02.479Z,57.37
2022-12-04T14:37:48.472Z,57.40
2022-12-04T14:40:31.256Z,57.39
2022-12-04T14:43:09.965Z,57.32
2022-12-04T14:45:49.888Z,57.23
2022-12-04T14:48:30.873Z,57.30
2022-12-04T14:51:08.967Z,57.31
2022-12-04T14:53:45.788Z,57.37
2022-12-04T14:56:28.012Z,57.34
2022-12-04T14:59:02.918Z,57.43
2022-12-04T15:01:38.441Z,57.47
2022-12-04T15:04:17.660Z,57.52
2022-12-04T15:06:56.915Z,57.51
2022-12-04T15:09:45.387Z,57.52
2022-12-04T15:12:37.323Z,57.52
2022-12-04T15:15:21.433Z,57.61
2022-12-04T15:18:02.882Z,57.62
2022-12-04T15:20:39.511Z,57.62
2022-12-04T15:23:15.030Z,57.64
2022-12-04T15:25:50.934Z,57.71
2022-12-04T15:28:26.888Z,57.75
2022-12-04T15:31:02.383Z,57.75
2022-12-04T15:33:38.676Z,57.84
2022-12-04T15:36:16.118Z,57.86
2022-12-04T15:38:51.132Z,57.87
2022-12-04T15:41:34.303Z,57.87
2022-12-04T15:44:24.807Z,57.97
2022-12-04T15:47:00.942Z,58.05
2022-12-04T15:49:34.957Z,58.05
2022-12-04T15:52:15.592Z,58.15
2022-12-04T15:54:52.013Z,58.22
2022-12-04T15:57:28.507Z,58.22
2022-12-04T16:00:05.472Z,58.29
2022-12-04T16:02:42.876Z,58.25
2022-12-04T16:05:24.519Z,58.23
2022-12-04T16:07:59.957Z,58.20
2022-12-04T16:10:35.580Z,58.20
2022-12-04T16:13:29.410Z,58.21
2022-12-04T16:16:04.308Z,58.20
2022-12-04T16:18:39.292Z,58.26
2022-12-04T16:21:15.633Z,58.27
2022-12-04T16:23:48.633Z,58.26
2022-12-04T16:26:22.835Z,58.28
2022-12-04T16:28:55.903Z,58.38
2022-12-04T16:31:30.193Z,58.38
2022-12-04T16:34:03.657Z,58.45
2022-12-04T16:36:37.446Z,58.47
2022-12-04T16:39:10.818Z,58.44
2022-12-04T16:41:43.967Z,58.41
2022-12-04T16:44:18.480Z,58.38
2022-12-04T16:46:53.014Z,58.39
2022-12-04T16:49:26.212Z,58.41
2022-12-04T16:52:03.801Z,58.43
2022-12-04T16:54:37.856Z,58.52
2022-12-04T16:57:11.577Z,58.60
2022-12-04T16:59:44.623Z,58.62
2022-12-04T17:02:20.995Z,58.66
2022-12-04T17:05:04.417Z,58.69
2022-12-04T17:07:37.979Z,58.64
2022-12-04T17:10:12.805Z,58.72
2022-12-04T17:12:46.579Z,58.74
2022-12-04T17:15:19.662Z,58.75
2022-12-04T17:17:53.140Z,58.75
2022-12-04T17:20:27.413Z,58.74
2022-12-04T17:23:00.987Z,58.80
2022-12-04T17:25:34.105Z,58.91
2022-12-04T17:28:07.699Z,58.99
2022-12-04T17:30:40.818Z,59.10
2022-12-04T17:33:13.851Z,59.17
2022-12-04T17:35:47.762Z,59.37
2022-12-04T17:38:20.897Z,59.43
2022-12-04T17:41:02.390Z,59.46
2022-12-04T17:43:36.216Z,59.41
2022-12-04T17:46:13.285Z,59.41
2022-12-04T17:48:46.977Z,59.42
2022-12-04T17:51:22.204Z,59.48
2022-12-04T17:53:55.607Z,59.54
2022-12-04T17:56:28.812Z,59.55
2022-12-04T17:59:02.000Z,59.61
2022-12-04T18:01:35.755Z,59.66
2022-12-04T18:04:09.753Z,59.65
2022-12-04T18:06:44.835Z,59.67
2022-12-04T18:09:18.927Z,59.77
2022-12-04T18:11:52.267Z,59.78
2022-12-04T18:14:25.648Z,59.71
2022-12-04T18:17:01.250Z,59.73
2022-12-04T18:19:35.556Z,59.77
2022-12-04T18:22:08.741Z,59.87
2022-12-04T18:24:42.136Z,59.87
2022-12-04T18:27:15.343Z,59.92
2022-12-04T18:29:48.473Z,59.96
2022-12-04T18:32:21.557Z,59.95
2022-12-04T18:34:55.714Z,60.03
2022-12-04T18:37:28.872Z,60.06
2022-12-04T18:40:06.507Z,60.03
2022-12-04T18:42:37.034Z,60.15
2022-12-04T18:45:12.317Z,60.24
2022-12-04T18:47:48.208Z,60.23
2022-12-04T18:50:22.011Z,60.27
2022-12-04T18:53:00.906Z,60.33
2022-12-04T18:55:33.755Z,60.36
2022-12-04T18:58:08.004Z,60.44
2022-12-04T19:00:42.605Z,60.50
2022-12-04T19:03:16.864Z,60.56
2022-12-04T19:05:51.891Z,60.51
2022-12-04T19:08:31.361Z,60.53
2022-12-04T19:11:07.720Z,60.43
2022-12-04T19:13:41.577Z,60.36
2022-12-04T19:16:16.495Z,60.36
2022-12-04T19:18:50.345Z,60.49
2022-12-04T19:21:24.357Z,60.46
2022-12-04T19:24:00.843Z,60.49
2022-12-04T19:26:35.810Z,60.48
2022-12-04T19:29:10.318Z,60.48
2022-12-04T19:31:44.505Z,60.55
2022-12-04T19:34:18.529Z,60.50
2022-12-04T19:36:52.367Z,60.53
2022-12-04T19:39:26.069Z,60.47
2022-12-04T19:42:00.041Z,60.52
2022-12-04T19:44:48.297Z,60.56
2022-12-04T19:47:12.503Z,60.56
2022-12-04T19:49:46.676Z,60.42
2022-12-04T19:52:20.457Z,60.37
2022-12-04T19:54:54.311Z,60.26
2022-12-04T19:57:28.233Z,60.27
2022-12-04T20:00:02.468Z,60.28
2022-12-04T20:02:38.876Z,60.32
2022-12-04T20:05:13.181Z,60.31
2022-12-04T20:07:47.011Z,60.28
2022-12-04T20:10:21.453Z,60.14
2022-12-04T20:12:55.507Z,60.12
2022-12-04T20:15:29.331Z,60.07
2022-12-04T20:18:03.314Z,60.04
2022-12-04T20:20:37.129Z,60.04
2022-12-04T20:23:10.847Z,60.04
2022-12-04T20:25:44.538Z,60.06
2022-12-04T20:28:18.655Z,60.08
2022-12-04T20:30:53.235Z,60.12
2022-12-04T20:33:27.003Z,60.12
2022-12-04T20:36:02.564Z,60.13
2022-12-04T20:38:36.667Z,60.16
2022-12-04T20:41:13.468Z,60.19
2022-12-04T20:43:48.462Z,60.18
2022-12-04T20:46:24.342Z,60.22
2022-12-04T20:48:58.929Z,60.21
2022-12-04T20:51:35.024Z,60.24
2022-12-04T20:54:10.347Z,60.29
2022-12-04T20:56:44.158Z,60.27
2022-12-04T20:59:19.767Z,60.22
2022-12-04T21:01:54.833Z,60.26
2022-12-04T21:04:28.722Z,60.26
2022-12-04T21:07:02.555Z,60.26
2022-12-04T21:09:36.623Z,60.26
2022-12-04T21:12:29.249Z,60.30
2022-12-04T21:15:20.555Z,60.31
2022-12-04T21:17:55.365Z,60.26
2022-12-04T21:20:29.375Z,60.25
2022-12-04T21:23:03.183Z,60.25
2022-12-04T21:25:37.480Z,60.26
2022-12-04T21:28:11.398Z,60.28
2022-12-04T21:30:45.197Z,60.24
2022-12-04T21:33:18.890Z,60.25
2022-12-04T21:35:52.888Z,60.30
2022-12-04T21:38:26.804Z,60.31
2022-12-04T21:41:00.694Z,60.34
2022-12-04T21:43:34.501Z,60.39
2022-12-04T21:46:09.821Z,60.40
2022-12-04T21:48:43.050Z,60.38
2022-12-04T21:51:39.942Z,60.40
2022-12-04T21:53:50.965Z,60.43
2022-12-04T21:56:24.144Z,60.41
2022-12-04T21:58:57.376Z,60.38
2022-12-04T22:01:30.933Z,60.48
2022-12-04T22:04:04.195Z,60.39
2022-12-04T22:06:38.034Z,60.42
2022-12-04T22:09:13.452Z,60.41
2022-12-04T22:11:46.869Z,60.48
2022-12-04T22:14:20.165Z,60.43
2022-12-04T22:16:54.372Z,60.43
2022-12-04T22:19:27.362Z,60.52
2022-12-04T22:22:00.470Z,60.48
2022-12-04T22:24:34.178Z,60.52
2022-12-04T22:27:09.599Z,60.46
2022-12-04T22:30:02.257Z,60.42
2022-12-04T22:32:19.459Z,60.45
2022-12-04T22:34:53.088Z,60.47
2022-12-04T22:37:28.244Z,60.46
2022-12-04T22:40:02.301Z,60.46
2022-12-04T22:42:36.050Z,60.46
2022-12-04T22:45:11.292Z,60.46
2022-12-04T22:47:45.299Z,60.43
2022-12-04T22:50:20.127Z,60.43
2022-12-04T22:52:53.933Z,60.45
2022-12-04T22:55:27.628Z,60.42
2022-12-04T22:58:01.355Z,60.45
2022-12-04T23:00:35.138Z,60.45
2022-12-04T23:03:08.928Z,60.46
2022-12-04T23:05:42.787Z,60.44
2022-12-04T23:08:16.460Z,60.43
2022-12-04T23:10:50.283Z,60.45
2022-12-04T23:13:24.077Z,60.42
2022-12-04T23:15:57.952Z,60.45
2022-12-04T23:18:31.973Z,60.49
2022-12-04T23:21:07.592Z,60.56
2022-12-04T23:23:43.612Z,60.55
2022-12-04T23:26:18.966Z,60.58
2022-12-04T23:28:53.129Z,60.58
2022-12-04T23:31:27.253Z,60.64
2022-12-04T23:34:01.991Z,60.65
2022-12-04T23:36:35.893Z,60.62
2022-12-04T23:39:09.832Z,60.66
2022-12-04T23:41:43.651Z,60.66
2022-12-04T23:44:17.518Z,60.66
2022-12-04T23:46:51.356Z,60.68
2022-12-04T23:49:25.209Z,60.64
2022-12-04T23:51:59.045Z,60.67
2022-12-04T23:54:35.151Z,60.66
2022-12-04T23:57:09.626Z,60.66
2022-12-04T23:59:43.586Z,60.63
